Time;durP1;ratioP1;P1;durP2;ratioP2;P2;SDS_P1;SDS_P2;PMS_P1;PMS_P2;Temp;Humidity;BMP_temperature;BMP_pressure;BME280_temperature;BME280_humidity;BME280_pressure;Samples;Min_cycle;Max_cycle;Signal;HPM_P1;HPM_P2
2021/11/22 00:02:04;;;;;;;4.88;1.30;;;;;;;;;;5039852;28;20048;-72
2021/11/22 00:04:31;;;;;;;5.35;1.20;;;;;;;;;;5049607;28;20048;-72
2021/11/22 00:06:57;;;;;;;9.52;1.63;;;;;;;;;;5058945;28;20395;-72
2021/11/22 00:09:24;;;;;;;7.65;2.00;;;;;;;;;;5032266;28;20584;-72
2021/11/22 00:11:50;;;;;;;6.30;1.17;;;;;;;;;;5053818;28;20055;-72
2021/11/22 00:14:17;;;;;;;2.13;1.05;;;;;;;;;;5053706;28;20067;-72
2021/11/22 00:16:43;;;;;;;2.42;1.08;;;;;;;;;;5051572;28;20509;-71
2021/11/22 00:19:10;;;;;;;5.47;1.27;;;;;;;;;;5059334;28;20503;-72
2021/11/22 00:21:36;;;;;;;8.55;1.38;;;;;;;;;;5051719;28;20055;-72
2021/11/22 00:24:03;;;;;;;4.50;1.48;;;;;;;;;;5060237;28;20052;-72
2021/11/22 00:26:29;;;;;;;3.58;1.30;;;;;;;;;;5047963;28;20049;-71
2021/11/22 00:28:56;;;;;;;7.03;1.65;;;;;;;;;;5054977;28;20056;-72
2021/11/22 00:31:23;;;;;;;8.02;1.30;;;;;;;;;;5059534;28;20052;-72
2021/11/22 00:33:51;;;;;;;7.93;1.35;;;;;;;;;;5051067;28;20620;-72
2021/11/22 00:36:17;;;;;;;6.00;1.10;;;;;;;;;;5040612;28;20063;-72
2021/11/22 00:38:43;;;;;;;5.07;1.30;;;;;;;;;;5050814;28;20853;-72
2021/11/22 00:41:10;;;;;;;7.72;1.40;;;;;;;;;;5052912;28;20044;-72
2021/11/22 00:43:36;;;;;;;4.35;0.93;;;;;;;;;;5046573;28;20063;-72
2021/11/22 00:46:02;;;;;;;7.65;1.05;;;;;;;;;;5059185;28;20040;-73
2021/11/22 00:48:29;;;;;;;5.10;1.20;;;;;;;;;;5059703;28;20274;-72
2021/11/22 00:50:56;;;;;;;3.85;1.30;;;;;;;;;;5032283;28;20642;-71
2021/11/22 00:53:22;;;;;;;5.72;0.88;;;;;;;;;;5056981;28;20572;-71
2021/11/22 00:55:49;;;;;;;5.43;1.23;;;;;;;;;;5042772;28;20372;-71
2021/11/22 00:58:15;;;;;;;4.50;1.42;;;;;;;;;;5058965;28;20399;-71
2021/11/22 01:00:41;;;;;;;6.50;1.40;;;;;;;;;;5050641;28;20508;-72
2021/11/22 01:03:08;;;;;;;4.60;1.17;;;;;;;;;;5058671;28;20401;-72
2021/11/22 01:05:34;;;;;;;3.67;1.13;;;;;;;;;;5056872;28;20098;-71
2021/11/22 01:08:03;;;;;;;6.95;1.27;;;;;;;;;;5045627;28;20048;-72
2021/11/22 01:10:29;;;;;;;6.82;0.80;;;;;;;;;;5053437;28;20131;-71
2021/11/22 01:12:56;;;;;;;5.38;1.00;;;;;;;;;;5049783;28;20468;-72
2021/11/22 01:15:22;;;;;;;4.82;1.00;;;;;;;;;;5059355;28;20469;-72
2021/11/22 01:17:50;;;;;;;6.85;1.13;;;;;;;;;;5050307;28;20052;-71
2021/11/22 01:20:18;;;;;;;4.03;1.15;;;;;;;;;;5058510;28;20051;-72
2021/11/22 01:22:44;;;;;;;5.65;0.70;;;;;;;;;;5053729;28;20045;-71
2021/11/22 01:25:12;;;;;;;4.18;1.02;;;;;;;;;;5045878;28;20047;-72
2021/11/22 01:27:45;;;;;;;5.22;1.02;;;;;;;;;;5057913;28;20080;-71
2021/11/22 01:30:12;;;;;;;4.32;0.88;;;;;;;;;;5050447;28;20052;-72
2021/11/22 01:32:39;;;;;;;6.18;1.30;;;;;;;;;;5058791;28;20405;-71
2021/11/22 01:35:06;;;;;;;4.65;1.05;;;;;;;;;;5050821;28;20060;-71
2021/11/22 01:37:32;;;;;;;5.15;1.27;;;;;;;;;;5050458;28;20071;-72
2021/11/22 01:39:58;;;;;;;4.00;0.98;;;;;;;;;;5031781;28;20623;-72
2021/11/22 01:42:25;;;;;;;7.03;1.25;;;;;;;;;;5056811;28;20297;-72
2021/11/22 01:44:51;;;;;;;6.10;1.13;;;;;;;;;;5039057;28;20041;-72
2021/11/22 01:47:18;;;;;;;3.47;1.10;;;;;;;;;;5050776;28;20386;-72
2021/11/22 01:49:44;;;;;;;5.20;1.30;;;;;;;;;;5054077;28;20080;-71
2021/11/22 01:52:11;;;;;;;4.32;1.00;;;;;;;;;;5026565;28;20041;-72
2021/11/22 01:54:37;;;;;;;5.95;1.30;;;;;;;;;;5039194;28;20412;-71
2021/11/22 01:57:03;;;;;;;4.35;1.00;;;;;;;;;;5050995;28;20045;-71
2021/11/22 01:59:31;;;;;;;3.13;1.08;;;;;;;;;;5057921;28;20052;-72
2021/11/22 02:01:58;;;;;;;5.07;1.50;;;;;;;;;;5059966;28;20513;-72
2021/11/22 02:04:24;;;;;;;5.88;1.65;;;;;;;;;;5045474;28;20056;-71
2021/11/22 02:06:51;;;;;;;7.00;1.10;;;;;;;;;;5034570;28;20052;-73
2021/11/22 02:09:17;;;;;;;2.17;1.02;;;;;;;;;;5050242;28;20055;-73
2021/11/22 02:11:43;;;;;;;9.55;1.30;;;;;;;;;;5057650;28;20501;-72
2021/11/22 02:14:10;;;;;;;4.68;1.60;;;;;;;;;;5051994;28;20478;-72
2021/11/22 02:16:36;;;;;;;3.53;1.55;;;;;;;;;;5056483;28;20048;-73
2021/11/22 02:19:03;;;;;;;6.63;1.20;;;;;;;;;;5054141;28;20094;-72
2021/11/22 02:21:30;;;;;;;7.47;2.17;;;;;;;;;;5055023;28;20052;-72
2021/11/22 02:23:57;;;;;;;7.95;1.20;;;;;;;;;;5061893;28;20044;-72
2021/11/22 02:26:24;;;;;;;3.75;1.20;;;;;;;;;;5055668;28;20520;-71
2021/11/22 02:28:50;;;;;;;4.70;1.20;;;;;;;;;;5064096;28;20580;-73
2021/11/22 02:31:17;;;;;;;5.57;1.40;;;;;;;;;;5055973;28;20041;-72
2021/11/22 02:33:43;;;;;;;3.65;1.20;;;;;;;;;;5056348;28;20044;-72
2021/11/22 02:36:10;;;;;;;4.50;1.20;;;;;;;;;;5063983;28;20048;-72
2021/11/22 02:38:38;;;;;;;7.78;1.20;;;;;;;;;;5036905;28;20052;-72
2021/11/22 02:41:06;;;;;;;5.00;1.20;;;;;;;;;;5064786;28;20051;-72
2021/11/22 02:43:33;;;;;;;5.78;1.08;;;;;;;;;;5035424;28;20588;-72
2021/11/22 02:45:59;;;;;;;2.97;1.33;;;;;;;;;;5057940;28;20068;-72
2021/11/22 02:48:26;;;;;;;4.10;1.20;;;;;;;;;;5056443;28;20044;-72
2021/11/22 02:50:52;;;;;;;3.78;1.20;;;;;;;;;;5064034;28;20083;-72
2021/11/22 02:53:21;;;;;;;5.20;1.48;;;;;;;;;;5046119;28;20055;-72
2021/11/22 02:55:48;;;;;;;5.35;1.20;;;;;;;;;;5056519;28;20405;-73
2021/11/22 02:58:14;;;;;;;7.05;1.30;;;;;;;;;;5043352;28;20830;-73
2021/11/22 03:00:41;;;;;;;1.95;1.05;;;;;;;;;;5032388;28;20059;-72
2021/11/22 03:03:07;;;;;;;2.33;1.00;;;;;;;;;;5065118;28;20060;-72
2021/11/22 03:05:34;;;;;;;3.95;1.08;;;;;;;;;;5058031;28;20047;-72
2021/11/22 03:08:00;;;;;;;6.13;1.17;;;;;;;;;;5063799;28;20052;-72
2021/11/22 03:10:28;;;;;;;5.50;1.60;;;;;;;;;;5064042;28;20052;-72
2021/11/22 03:12:55;;;;;;;5.13;1.27;;;;;;;;;;5049343;28;20055;-72
2021/11/22 03:15:22;;;;;;;9.80;2.05;;;;;;;;;;5062789;28;20056;-72
2021/11/22 03:17:48;;;;;;;3.85;1.50;;;;;;;;;;5055504;28;20071;-73
2021/11/22 03:20:17;;;;;;;2.00;1.08;;;;;;;;;;5044992;28;20051;-72
2021/11/22 03:22:43;;;;;;;;;;;;;;;;;;5056744;28;20064;-71
2021/11/22 03:25:11;;;;;;;2.53;1.13;;;;;;;;;;5059402;28;19928;-72
2021/11/22 03:27:41;;;;;;;2.78;1.20;;;;;;;;;;5059107;28;20496;-72
2021/11/22 03:30:09;;;;;;;3.17;1.13;;;;;;;;;;5054165;28;20421;-73
2021/11/22 03:32:36;;;;;;;3.10;0.97;;;;;;;;;;5060087;28;20051;-72
2021/11/22 03:35:03;;;;;;;4.68;1.23;;;;;;;;;;5054583;28;20044;-72
2021/11/22 03:37:29;;;;;;;4.80;1.45;;;;;;;;;;5062310;28;20049;-72
2021/11/22 03:39:56;;;;;;;3.70;1.88;;;;;;;;;;5051168;28;20163;-71
2021/11/22 03:42:24;;;;;;;6.25;1.80;;;;;;;;;;5054479;28;20063;-72
2021/11/22 03:44:50;;;;;;;8.52;1.90;;;;;;;;;;5059255;28;20710;-72
2021/11/22 03:47:17;;;;;;;10.18;1.90;;;;;;;;;;5052891;28;20055;-72
2021/11/22 03:49:43;;;;;;;6.18;1.20;;;;;;;;;;5061106;28;20044;-72
2021/11/22 03:52:10;;;;;;;6.22;1.45;;;;;;;;;;5052679;28;20048;-72
2021/11/22 03:54:37;;;;;;;8.00;1.30;;;;;;;;;;5054699;28;20049;-73
2021/11/22 03:57:04;;;;;;;4.20;1.17;;;;;;;;;;5049893;28;20413;-72
2021/11/22 03:59:31;;;;;;;2.35;1.10;;;;;;;;;;5059959;28;20044;-72
2021/11/22 04:01:57;;;;;;;4.20;1.38;;;;;;;;;;5060718;28;20645;-72
2021/11/22 04:04:24;;;;;;;2.10;1.15;;;;;;;;;;5032358;28;20072;-72
2021/11/22 04:06:52;;;;;;;7.85;1.38;;;;;;;;;;5038517;28;20052;-72
2021/11/22 04:09:18;;;;;;;8.13;1.33;;;;;;;;;;5045647;28;20140;-72
2021/11/22 04:11:44;;;;;;;5.18;1.20;;;;;;;;;;5040808;28;20286;-72
2021/11/22 04:14:12;;;;;;;5.55;1.40;;;;;;;;;;5053973;28;20540;-72
2021/11/22 04:16:38;;;;;;;4.93;1.30;;;;;;;;;;5058105;28;20055;-72
2021/11/22 04:19:04;;;;;;;2.72;1.17;;;;;;;;;;5061710;28;20064;-71
2021/11/22 04:21:31;;;;;;;5.80;1.38;;;;;;;;;;5049810;28;20048;-71
2021/11/22 04:23:57;;;;;;;6.05;1.20;;;;;;;;;;5059761;28;20044;-71
2021/11/22 04:26:24;;;;;;;2.25;1.00;;;;;;;;;;5053583;28;20057;-72
2021/11/22 04:28:50;;;;;;;5.50;1.38;;;;;;;;;;5039384;28;20094;-72
2021/11/22 04:31:16;;;;;;;7.22;1.90;;;;;;;;;;5059287;28;20044;-72
2021/11/22 04:33:43;;;;;;;3.88;1.40;;;;;;;;;;5055243;28;20427;-72
2021/11/22 04:36:10;;;;;;;4.78;1.25;;;;;;;;;;5055505;28;20134;-71
2021/11/22 04:38:37;;;;;;;2.80;1.02;;;;;;;;;;5035134;28;20455;-71
2021/11/22 04:41:04;;;;;;;7.15;1.38;;;;;;;;;;5063156;28;20060;-72
2021/11/22 04:43:30;;;;;;;4.45;1.25;;;;;;;;;;5056648;28;20114;-72
2021/11/22 04:45:57;;;;;;;5.70;1.48;;;;;;;;;;5061524;28;20048;-71
2021/11/22 04:48:23;;;;;;;3.90;1.30;;;;;;;;;;5057254;28;20059;-72
2021/11/22 04:50:49;;;;;;;2.20;1.10;;;;;;;;;;5048120;28;20053;-72
2021/11/22 04:53:16;;;;;;;6.43;1.50;;;;;;;;;;5060950;28;20059;-72
2021/11/22 04:55:42;;;;;;;6.35;1.45;;;;;;;;;;5052374;28;20063;-72
2021/11/22 04:58:09;;;;;;;5.82;1.23;;;;;;;;;;5043083;28;20120;-72
2021/11/22 05:00:36;;;;;;;6.28;1.35;;;;;;;;;;5052610;28;20056;-72
2021/11/22 05:03:04;;;;;;;6.53;1.33;;;;;;;;;;5055404;28;20044;-72
2021/11/22 05:05:30;;;;;;;3.77;1.27;;;;;;;;;;5050715;28;20044;-71
2021/11/22 05:07:56;;;;;;;5.57;1.30;;;;;;;;;;5059887;28;20309;-72
2021/11/22 05:10:32;;;;;;;3.00;1.08;;;;;;;;;;5061685;28;20568;-72
2021/11/22 05:12:58;;;;;;;6.47;1.35;;;;;;;;;;5034493;28;20899;-72
2021/11/22 05:15:25;;;;;;;3.38;1.05;;;;;;;;;;5038442;28;20059;-72
2021/11/22 05:17:51;;;;;;;7.13;1.90;;;;;;;;;;5048196;28;20683;-72
2021/11/22 05:20:17;;;;;;;3.88;1.27;;;;;;;;;;5061048;28;20044;-72
2021/11/22 05:22:49;;;;;;;4.85;1.38;;;;;;;;;;5053788;28;20106;-73
2021/11/22 05:25:16;;;;;;;9.80;1.40;;;;;;;;;;5060457;28;20425;-72
2021/11/22 05:27:42;;;;;;;4.38;1.40;;;;;;;;;;5060132;28;20052;-71
2021/11/22 05:30:09;;;;;;;6.65;1.33;;;;;;;;;;5030734;28;20056;-72
2021/11/22 05:32:35;;;;;;;4.57;1.30;;;;;;;;;;5056209;28;20351;-71
2021/11/22 05:35:02;;;;;;;12.88;1.80;;;;;;;;;;5034644;28;20048;-72
2021/11/22 05:37:31;;;;;;;4.40;1.45;;;;;;;;;;5042730;28;20048;-72
2021/11/22 05:39:57;;;;;;;5.25;1.25;;;;;;;;;;5052357;28;20045;-72
2021/11/22 05:42:23;;;;;;;2.10;1.17;;;;;;;;;;5060609;28;20045;-71
2021/11/22 05:44:50;;;;;;;4.95;1.75;;;;;;;;;;5055512;28;20049;-71
2021/11/22 05:47:18;;;;;;;9.05;1.48;;;;;;;;;;5029892;28;20122;-71
2021/11/22 05:49:45;;;;;;;4.03;1.00;;;;;;;;;;5041470;28;20353;-72
2021/11/22 05:52:12;;;;;;;3.65;1.10;;;;;;;;;;5033479;28;20439;-72
2021/11/22 05:54:52;;;;;;;11.75;1.88;;;;;;;;;;5058275;28;20044;-72
2021/11/22 05:57:19;;;;;;;5.63;1.40;;;;;;;;;;5031104;28;20156;-71
2021/11/22 05:59:45;;;;;;;6.90;2.10;;;;;;;;;;5055665;28;20051;-72
2021/11/22 06:02:12;;;;;;;3.55;1.33;;;;;;;;;;5059101;28;20432;-73
2021/11/22 06:04:38;;;;;;;6.55;1.92;;;;;;;;;;5032388;28;20045;-73
2021/11/22 06:07:05;;;;;;;10.75;1.40;;;;;;;;;;5059653;28;20049;-72
2021/11/22 06:09:32;;;;;;;2.65;1.27;;;;;;;;;;5050378;28;20427;-73
2021/11/22 06:11:58;;;;;;;5.70;1.88;;;;;;;;;;5050208;28;20052;-72
2021/11/22 06:14:25;;;;;;;1.70;1.10;;;;;;;;;;5033091;28;20064;-72
2021/11/22 06:16:51;;;;;;;3.53;1.10;;;;;;;;;;5058903;28;20470;-72
2021/11/22 06:19:17;;;;;;;6.88;1.40;;;;;;;;;;5059413;28;20051;-73
2021/11/22 06:21:44;;;;;;;8.98;1.70;;;;;;;;;;5032807;28;20045;-73
2021/11/22 06:24:10;;;;;;;6.10;1.20;;;;;;;;;;5054741;28;20497;-72
2021/11/22 06:26:37;;;;;;;5.45;1.40;;;;;;;;;;5046206;28;20056;-72
2021/11/22 06:29:03;;;;;;;8.43;1.90;;;;;;;;;;5059754;28;20447;-72
2021/11/22 06:31:29;;;;;;;4.07;1.65;;;;;;;;;;5032868;28;20055;-72
2021/11/22 06:33:56;;;;;;;10.18;3.03;;;;;;;;;;5059878;28;20474;-73
2021/11/22 06:36:22;;;;;;;8.60;2.40;;;;;;;;;;5059657;28;20049;-72
2021/11/22 06:38:48;;;;;;;4.45;1.65;;;;;;;;;;5046518;28;20067;-72
2021/11/22 06:41:15;;;;;;;7.30;1.67;;;;;;;;;;5053964;28;20052;-73
2021/11/22 06:43:41;;;;;;;3.55;1.30;;;;;;;;;;5051786;28;20534;-72
2021/11/22 06:46:08;;;;;;;5.72;1.95;;;;;;;;;;5059899;28;20053;-73
2021/11/22 06:48:34;;;;;;;6.03;1.67;;;;;;;;;;5031566;28;20059;-72
2021/11/22 06:51:00;;;;;;;8.43;1.77;;;;;;;;;;5057880;28;20135;-72
2021/11/22 06:53:27;;;;;;;6.03;2.05;;;;;;;;;;5053648;28;20443;-72
2021/11/22 06:55:53;;;;;;;13.85;5.88;;;;;;;;;;5031901;28;20044;-72
2021/11/22 06:58:19;;;;;;;15.88;5.22;;;;;;;;;;5058955;28;20041;-73
2021/11/22 07:00:46;;;;;;;5.25;2.85;;;;;;;;;;5051909;28;20420;-73
2021/11/22 07:03:12;;;;;;;5.03;2.20;;;;;;;;;;5056830;28;20048;-73
2021/11/22 07:05:39;;;;;;;7.30;1.60;;;;;;;;;;5044735;28;20041;-73
2021/11/22 07:08:07;;;;;;;5.95;2.13;;;;;;;;;;5060656;28;20055;-73
2021/11/22 07:10:34;;;;;;;3.10;1.45;;;;;;;;;;5061873;28;20559;-73
2021/11/22 07:13:00;;;;;;;4.25;2.10;;;;;;;;;;5055072;28;20044;-73
2021/11/22 07:15:33;;;;;;;5.38;1.80;;;;;;;;;;5061666;28;20056;-73
2021/11/22 07:18:00;;;;;;;9.10;2.00;;;;;;;;;;5050928;28;20052;-73
2021/11/22 07:20:26;;;;;;;8.77;2.17;;;;;;;;;;5061380;28;20108;-73
2021/11/22 07:22:52;;;;;;;5.88;1.98;;;;;;;;;;5056671;28;20049;-73
2021/11/22 07:25:19;;;;;;;6.10;2.08;;;;;;;;;;5063106;28;20058;-73
2021/11/22 07:27:46;;;;;;;5.68;1.88;;;;;;;;;;5044365;28;20049;-73
2021/11/22 07:30:18;;;;;;;3.05;1.73;;;;;;;;;;5050730;28;20045;-73
2021/11/22 07:32:45;;;;;;;8.65;2.47;;;;;;;;;;5058250;28;20079;-73
2021/11/22 07:35:11;;;;;;;18.08;6.05;;;;;;;;;;5054944;28;20055;-73
2021/11/22 07:37:39;;;;;;;9.32;3.60;;;;;;;;;;5043625;28;20055;-73
2021/11/22 07:40:06;;;;;;;10.80;3.22;;;;;;;;;;5054386;28;20044;-73
2021/11/22 07:42:32;;;;;;;8.60;3.25;;;;;;;;;;5062391;28;20052;-73
2021/11/22 07:44:58;;;;;;;6.90;2.40;;;;;;;;;;5033811;28;20059;-73
2021/11/22 07:47:25;;;;;;;7.82;2.35;;;;;;;;;;5058930;28;20048;-73
2021/11/22 07:49:51;;;;;;;7.32;2.08;;;;;;;;;;5063940;28;20051;-73
2021/11/22 07:52:19;;;;;;;8.02;2.42;;;;;;;;;;5037930;28;20048;-73
2021/11/22 07:54:46;;;;;;;11.23;2.63;;;;;;;;;;5062168;28;20196;-73
2021/11/22 07:57:12;;;;;;;9.18;2.30;;;;;;;;;;5054507;28;20074;-73
2021/11/22 07:59:38;;;;;;;8.02;2.15;;;;;;;;;;5055327;28;20056;-73
2021/11/22 08:02:05;;;;;;;6.00;2.00;;;;;;;;;;5052372;28;20056;-73
2021/11/22 08:04:31;;;;;;;6.18;2.60;;;;;;;;;;5062512;28;20324;-73
2021/11/22 08:07:01;;;;;;;9.40;2.60;;;;;;;;;;5061167;28;20417;-73
2021/11/22 08:09:31;;;;;;;9.95;1.65;;;;;;;;;;5054089;28;20582;-73
2021/11/22 08:14:33;;;;;;;3.30;1.58;;;;;;;;;;5051579;28;20110;-72
2021/11/22 08:17:03;;;;;;;13.32;2.28;;;;;;;;;;5062346;28;20151;-73
2021/11/22 08:19:30;;;;;;;9.20;1.90;;;;;;;;;;5056146;28;20616;-73
2021/11/22 08:21:57;;;;;;;9.80;2.03;;;;;;;;;;5061250;28;20056;-73
2021/11/22 08:24:26;;;;;;;3.88;1.60;;;;;;;;;;5043482;28;20246;-73
2021/11/22 08:26:52;;;;;;;;;;;;;;;;;;5049401;28;20052;-73
2021/11/22 08:29:19;;;;;;;4.28;1.35;;;;;;;;;;5056661;28;19928;-72
2021/11/22 08:31:45;;;;;;;7.63;1.80;;;;;;;;;;5056364;28;20060;-73
2021/11/22 08:34:11;;;;;;;6.97;1.55;;;;;;;;;;5061998;28;20048;-73
2021/11/22 08:36:38;;;;;;;6.90;1.25;;;;;;;;;;5055255;28;20048;-73
2021/11/22 08:39:05;;;;;;;5.85;1.27;;;;;;;;;;5043150;28;20056;-73
2021/11/22 08:41:32;;;;;;;2.95;1.27;;;;;;;;;;5056289;28;20044;-73
2021/11/22 08:43:58;;;;;;;5.50;1.90;;;;;;;;;;5052048;28;20045;-73
2021/11/22 08:46:25;;;;;;;13.07;2.53;;;;;;;;;;5043794;28;20064;-73
2021/11/22 08:48:51;;;;;;;6.30;1.98;;;;;;;;;;5053955;28;20288;-73
2021/11/22 08:51:18;;;;;;;6.70;1.85;;;;;;;;;;5061340;28;20051;-73
2021/11/22 08:53:44;;;;;;;11.00;2.28;;;;;;;;;;5028898;28;20527;-73
2021/11/22 08:56:11;;;;;;;6.07;1.95;;;;;;;;;;5035972;28;20048;-73
2021/11/22 08:58:38;;;;;;;10.77;2.47;;;;;;;;;;5041148;28;20070;-73
2021/11/22 09:01:04;;;;;;;7.40;2.65;;;;;;;;;;5051158;28;20565;-73
2021/11/22 09:03:35;;;;;;;7.80;2.40;;;;;;;;;;5042138;28;20258;-73
2021/11/22 09:06:01;;;;;;;4.93;1.80;;;;;;;;;;5053158;28;20094;-73
2021/11/22 09:08:28;;;;;;;10.07;2.08;;;;;;;;;;5056766;28;20603;-73
2021/11/22 09:10:54;;;;;;;8.80;2.17;;;;;;;;;;5031086;28;20048;-72
2021/11/22 09:13:20;;;;;;;9.45;1.95;;;;;;;;;;5061652;28;20421;-73
2021/11/22 09:15:47;;;;;;;6.25;1.92;;;;;;;;;;5040402;28;20147;-72
2021/11/22 09:18:13;;;;;;;7.40;1.90;;;;;;;;;;5039283;28;20063;-74
2021/11/22 09:20:40;;;;;;;4.38;1.35;;;;;;;;;;5060671;28;20114;-73
2021/11/22 09:23:07;;;;;;;9.25;1.67;;;;;;;;;;5047742;28;20064;-73
2021/11/22 09:25:35;;;;;;;2.45;1.40;;;;;;;;;;5054706;28;20472;-72
2021/11/22 09:28:01;;;;;;;5.73;1.13;;;;;;;;;;5052061;28;20433;-72
2021/11/22 09:30:28;;;;;;;5.82;1.27;;;;;;;;;;5041183;28;20619;-73
2021/11/22 09:32:54;;;;;;;5.43;1.40;;;;;;;;;;5058486;28;20048;-74
2021/11/22 09:35:25;;;;;;;6.75;1.80;;;;;;;;;;5049484;28;20044;-73
2021/11/22 09:37:52;;;;;;;5.35;1.50;;;;;;;;;;5053152;28;20052;-73
2021/11/22 09:40:18;;;;;;;5.55;1.70;;;;;;;;;;5049912;28;20057;-74
2021/11/22 09:42:44;;;;;;;7.22;1.77;;;;;;;;;;5041743;28;20401;-73
2021/11/22 09:45:11;;;;;;;2.53;0.95;;;;;;;;;;5050154;28;20057;-73
2021/11/22 09:47:38;;;;;;;4.50;1.10;;;;;;;;;;5041623;28;20049;-73
2021/11/22 09:50:06;;;;;;;4.75;1.60;;;;;;;;;;5055508;28;20071;-74
2021/11/22 09:52:33;;;;;;;5.47;2.03;;;;;;;;;;5051675;28;20360;-73
2021/11/22 09:55:00;;;;;;;6.65;1.52;;;;;;;;;;5058626;28;20426;-74
2021/11/22 09:57:26;;;;;;;8.77;1.95;;;;;;;;;;5049842;28;20056;-74
2021/11/22 09:59:52;;;;;;;6.50;1.30;;;;;;;;;;5057713;28;20056;-73
2021/11/22 10:02:19;;;;;;;4.82;1.25;;;;;;;;;;5050532;28;20056;-74
2021/11/22 10:04:45;;;;;;;3.47;0.93;;;;;;;;;;5053222;28;20091;-74
2021/11/22 10:07:16;;;;;;;6.13;1.10;;;;;;;;;;5052524;28;20045;-74
2021/11/22 10:09:44;;;;;;;2.70;1.00;;;;;;;;;;5052845;28;20052;-74
2021/11/22 10:12:14;;;;;;;6.50;1.60;;;;;;;;;;5059400;28;20083;-74
2021/11/22 10:14:46;;;;;;;6.43;1.13;;;;;;;;;;5032643;28;20051;-73
2021/11/22 10:17:23;;;;;;;4.45;1.20;;;;;;;;;;5057339;28;20052;-74
2021/11/22 10:20:08;;;;;;;9.52;1.23;;;;;;;;;;5027203;28;20497;-74
2021/11/22 10:22:44;;;;;;;6.32;1.17;;;;;;;;;;5057308;28;20048;-74
2021/11/22 10:25:32;;;;;;;4.88;1.15;;;;;;;;;;5049993;28;20055;-73
2021/11/22 10:27:59;;;;;;;;;;;;;;;;;;5058831;28;20504;-74
2021/11/22 10:30:26;;;;;;;5.68;1.10;;;;;;;;;;5032089;28;20570;-74
2021/11/22 10:32:53;;;;;;;2.58;0.95;;;;;;;;;;5053186;28;20545;-74
2021/11/22 10:35:21;;;;;;;5.43;1.13;;;;;;;;;;5053292;28;20060;-73
2021/11/22 10:38:04;;;;;;;5.30;1.00;;;;;;;;;;5049294;28;20059;-74
2021/11/22 10:40:32;;;;;;;3.55;1.10;;;;;;;;;;5058926;28;20421;-73
2021/11/22 10:42:58;;;;;;;5.25;1.05;;;;;;;;;;5034705;28;20044;-74
2021/11/22 10:45:33;;;;;;;6.03;1.30;;;;;;;;;;5055253;28;20053;-73
2021/11/22 10:48:07;;;;;;;4.10;1.35;;;;;;;;;;5050167;28;20179;-73
2021/11/22 10:50:36;;;;;;;4.57;0.98;;;;;;;;;;5059840;28;20067;-74
2021/11/22 10:53:04;;;;;;;5.40;1.13;;;;;;;;;;5036463;28;20545;-74
2021/11/22 10:55:51;;;;;;;2.22;1.10;;;;;;;;;;5060031;28;20064;-73
2021/11/22 10:58:38;;;;;;;5.00;1.48;;;;;;;;;;5039115;28;20056;-73
2021/11/22 11:01:13;;;;;;;4.07;0.95;;;;;;;;;;5056985;28;20049;-74
2021/11/22 11:03:47;;;;;;;3.13;1.35;;;;;;;;;;5061392;28;20045;-74
2021/11/22 11:06:13;;;;;;;3.60;1.00;;;;;;;;;;5034970;28;20044;-74
2021/11/22 11:08:40;;;;;;;5.65;1.05;;;;;;;;;;5059728;28;20048;-73
2021/11/22 11:11:07;;;;;;;5.85;1.08;;;;;;;;;;5050758;28;20055;-74
2021/11/22 11:13:44;;;;;;;3.50;1.27;;;;;;;;;;5053414;28;20507;-74
2021/11/22 11:16:12;;;;;;;6.78;1.60;;;;;;;;;;5033496;28;20463;-73
2021/11/22 11:18:38;;;;;;;2.92;1.20;;;;;;;;;;5059695;28;20047;-74
2021/11/22 11:21:05;;;;;;;3.90;1.20;;;;;;;;;;5061473;28;20280;-74
2021/11/22 11:23:32;;;;;;;3.25;1.08;;;;;;;;;;5035864;28;20127;-74
2021/11/22 11:25:58;;;;;;;3.22;0.95;;;;;;;;;;5057257;28;20559;-74
2021/11/22 11:28:25;;;;;;;3.95;1.08;;;;;;;;;;5033578;28;20437;-73
2021/11/22 11:30:51;;;;;;;10.02;1.73;;;;;;;;;;5061954;28;20620;-74
2021/11/22 11:33:18;;;;;;;3.08;0.93;;;;;;;;;;5054060;28;20052;-74
2021/11/22 11:35:59;;;;;;;6.18;1.00;;;;;;;;;;5041914;28;20139;-73
2021/11/22 11:38:33;;;;;;;7.75;2.33;;;;;;;;;;5056790;28;20495;-73
2021/11/22 11:41:03;;;;;;;5.30;1.42;;;;;;;;;;5035526;28;20859;-73
2021/11/22 11:43:41;;;;;;;3.03;1.13;;;;;;;;;;5060178;28;20064;-73
2021/11/22 11:46:08;;;;;;;;;;;;;;;;;;5054952;28;20117;-74
2021/11/22 11:48:51;;;;;;;2.88;1.00;;;;;;;;;;5059439;28;19978;-74
2021/11/22 11:51:19;;;;;;;5.95;1.10;;;;;;;;;;5049601;28;20446;-74
2021/11/22 11:54:07;;;;;;;3.15;1.25;;;;;;;;;;5054536;28;20182;-74
2021/11/22 11:56:45;;;;;;;2.58;1.10;;;;;;;;;;5051692;28;20126;-73
2021/11/22 11:59:22;;;;;;;4.85;0.90;;;;;;;;;;5061870;28;20048;-74
2021/11/22 12:02:01;;;;;;;5.15;1.30;;;;;;;;;;5052444;28;20080;-74
2021/11/22 12:04:29;;;;;;;3.70;1.00;;;;;;;;;;5060165;28;20052;-74
2021/11/22 12:06:57;;;;;;;5.63;2.20;;;;;;;;;;5055677;28;20051;-73
2021/11/22 12:09:32;;;;;;;3.77;1.17;;;;;;;;;;5047141;28;20052;-73
2021/11/22 12:12:07;;;;;;;6.07;0.90;;;;;;;;;;5060931;28;20321;-73
2021/11/22 12:14:54;;;;;;;1.85;0.80;;;;;;;;;;5053003;28;20082;-75
2021/11/22 12:17:39;;;;;;;2.33;0.80;;;;;;;;;;5060615;28;20348;-72
2021/11/22 12:20:06;;;;;;;1.40;0.70;;;;;;;;;;5048708;28;20449;-74
2021/11/22 12:22:40;;;;;;;4.35;1.20;;;;;;;;;;5055145;28;20049;-72
2021/11/22 12:25:08;;;;;;;1.65;0.80;;;;;;;;;;5031807;28;20053;-72
2021/11/22 12:27:35;;;;;;;4.50;1.23;;;;;;;;;;5059283;28;20055;-74
2021/11/22 12:30:28;;;;;;;3.08;0.95;;;;;;;;;;5058452;28;20607;-72
2021/11/22 12:33:13;;;;;;;4.78;0.95;;;;;;;;;;5058954;28;20052;-72
2021/11/22 12:35:39;;;;;;;1.80;0.90;;;;;;;;;;5050417;28;20052;-72
2021/11/22 12:38:16;;;;;;;5.45;1.20;;;;;;;;;;5031563;28;20428;-74
2021/11/22 12:40:47;;;;;;;3.58;0.93;;;;;;;;;;5059186;28;20063;-74
2021/11/22 12:43:14;;;;;;;2.95;0.90;;;;;;;;;;5051609;28;20056;-74
2021/11/22 12:45:59;;;;;;;5.20;1.55;;;;;;;;;;5059043;28;20055;-74
2021/11/22 12:48:39;;;;;;;5.93;1.08;;;;;;;;;;5026077;28;20097;-74
2021/11/22 12:51:07;;;;;;;2.15;0.90;;;;;;;;;;5053385;28;20048;-74
2021/11/22 12:53:34;;;;;;;3.20;1.20;;;;;;;;;;5049551;28;20371;-74
2021/11/22 12:56:01;;;;;;;3.83;1.02;;;;;;;;;;5039495;28;20883;-74
2021/11/22 12:58:29;;;;;;;5.82;1.30;;;;;;;;;;5056293;28;20044;-74
2021/11/22 13:01:00;;;;;;;6.53;1.40;;;;;;;;;;5031014;28;20044;-75
2021/11/22 13:03:28;;;;;;;6.13;0.95;;;;;;;;;;5051230;28;20040;-74
2021/11/22 13:06:16;;;;;;;4.53;1.10;;;;;;;;;;5048720;28;20558;-74
2021/11/22 13:08:43;;;;;;;3.75;1.30;;;;;;;;;;5058873;28;20067;-74
2021/11/22 13:11:22;;;;;;;5.35;1.10;;;;;;;;;;5051219;28;20056;-74
2021/11/22 13:14:06;;;;;;;3.53;1.10;;;;;;;;;;5036135;28;20059;-74
2021/11/22 13:16:33;;;;;;;7.72;1.33;;;;;;;;;;5045690;28;20049;-74
2021/11/22 13:19:06;;;;;;;5.20;1.00;;;;;;;;;;5053848;28;20056;-74
2021/11/22 13:21:32;;;;;;;2.90;1.00;;;;;;;;;;5039875;28;20413;-74
2021/11/22 13:24:08;;;;;;;4.38;1.27;;;;;;;;;;5049178;28;20059;-74
2021/11/22 13:26:35;;;;;;;3.30;0.80;;;;;;;;;;5057091;28;20048;-72
2021/11/22 13:29:08;;;;;;;2.78;1.00;;;;;;;;;;5050866;28;20062;-73
2021/11/22 13:31:38;;;;;;;2.65;1.00;;;;;;;;;;5050118;28;20459;-74
2021/11/22 13:34:06;;;;;;;4.40;1.20;;;;;;;;;;5030062;28;20458;-73
2021/11/22 13:36:52;;;;;;;5.78;1.10;;;;;;;;;;5057623;28;20151;-73
2021/11/22 13:39:20;;;;;;;6.07;1.88;;;;;;;;;;5049520;28;20048;-73
2021/11/22 13:41:51;;;;;;;4.53;1.10;;;;;;;;;;5056095;28;20053;-74
2021/11/22 13:44:18;;;;;;;3.10;1.00;;;;;;;;;;5050777;28;20587;-73
2021/11/22 13:46:45;;;;;;;4.10;1.23;;;;;;;;;;5042326;28;20056;-73
2021/11/22 13:49:13;;;;;;;5.85;1.30;;;;;;;;;;5056301;28;20792;-74
2021/11/22 13:51:41;;;;;;;8.20;1.50;;;;;;;;;;5046910;28;20467;-74
2021/11/22 13:54:10;;;;;;;5.07;2.08;;;;;;;;;;5057101;28;20079;-73
2021/11/22 13:56:51;;;;;;;5.35;2.17;;;;;;;;;;5048479;28;20882;-73
2021/11/22 13:59:18;;;;;;;3.42;1.23;;;;;;;;;;5050028;28;20154;-74
2021/11/22 14:01:45;;;;;;;2.78;0.85;;;;;;;;;;5057301;28;20079;-72
2021/11/22 14:04:13;;;;;;;2.83;0.80;;;;;;;;;;5055724;28;20503;-73
2021/11/22 14:06:39;;;;;;;2.22;0.82;;;;;;;;;;5059652;28;20049;-72
2021/11/22 14:09:06;;;;;;;1.30;0.70;;;;;;;;;;5051742;28;20057;-72
2021/11/22 14:11:32;;;;;;;1.52;0.50;;;;;;;;;;5052524;28;20048;-72
2021/11/22 14:14:00;;;;;;;1.10;0.60;;;;;;;;;;5047126;28;20056;-72
2021/11/22 14:16:28;;;;;;;1.42;0.50;;;;;;;;;;5057518;28;20048;-72
2021/11/22 14:18:56;;;;;;;1.02;0.50;;;;;;;;;;5038232;28;20079;-72
2021/11/22 14:21:40;;;;;;;3.43;0.40;;;;;;;;;;5050615;28;20044;-73
2021/11/22 14:24:13;;;;;;;3.83;0.65;;;;;;;;;;5057690;28;20040;-72
2021/11/22 14:26:41;;;;;;;3.45;0.50;;;;;;;;;;5045744;28;20056;-73
2021/11/22 14:29:08;;;;;;;1.23;0.50;;;;;;;;;;5058963;28;20500;-72
2021/11/22 14:31:39;;;;;;;1.48;0.50;;;;;;;;;;5051823;28;20052;-73
2021/11/22 14:34:12;;;;;;;2.47;1.02;;;;;;;;;;5055888;28;20650;-73
2021/11/22 14:36:40;;;;;;;2.22;0.80;;;;;;;;;;5052225;28;20063;-74
2021/11/22 14:39:06;;;;;;;9.85;4.15;;;;;;;;;;5054494;28;20052;-72
2021/11/22 14:41:42;;;;;;;11.18;5.38;;;;;;;;;;5054808;28;20055;-74
2021/11/22 14:44:09;;;;;;;7.68;3.00;;;;;;;;;;5033073;28;20155;-73
2021/11/22 14:46:38;;;;;;;8.00;3.55;;;;;;;;;;5040729;28;20049;-72
2021/11/22 14:49:33;;;;;;;3.17;1.40;;;;;;;;;;5053342;28;20994;-72
2021/11/22 14:52:01;;;;;;;5.18;1.15;;;;;;;;;;5038995;28;20694;-72
2021/11/22 14:54:36;;;;;;;2.45;0.90;;;;;;;;;;5045775;28;20041;-72